Terminal Aerodrome Forecast
Issued by NWS

Home | Current Version | Previous Version | Text Only | Print | Product List | Glossary On
Versions: 1 2 3 4 5 6 7 8 9 10 11 12 13 14 15 16
000
FTUS46 KSTO 290500
TAFMHR
TAF
KMHR 290522Z 2906/3006 15005KT P6SM FEW150 BKN200
     FM290800 VRB05KT P6SM BKN250
     FM292200 25007KT P6SM FEW250
     FM300200 21008KT P6SM FEW250=

USA.gov is the U.S. government's official web portal to all federal, state and local government web resources and services.